createdAt,value
2019-01-14T00:01:21.846Z,81.30
2019-01-14T00:03:52.555Z,79.20
2019-01-14T00:06:23.430Z,76.00
2019-01-14T00:08:53.999Z,78.10
2019-01-14T00:11:24.311Z,78.60
2019-01-14T00:13:54.666Z,78.70
2019-01-14T00:16:25.267Z,79.90
2019-01-14T00:18:55.887Z,79.40
2019-01-14T00:21:26.260Z,76.70
2019-01-14T00:23:56.602Z,73.80
2019-01-14T00:26:27.213Z,75.20
2019-01-14T00:28:58.132Z,80.70
2019-01-14T00:31:28.446Z,81.90
2019-01-14T00:33:58.797Z,89.10
2019-01-14T00:36:29.540Z,86.90
2019-01-14T00:39:00.184Z,90.10
2019-01-14T00:41:30.506Z,88.20
2019-01-14T00:44:00.855Z,86.70
2019-01-14T00:46:31.535Z,88.30
2019-01-14T00:49:02.113Z,85.80
2019-01-14T00:51:32.863Z,85.80
2019-01-14T00:54:03.492Z,84.50
2019-01-14T00:56:33.816Z,81.30
2019-01-14T00:59:04.538Z,79.50
2019-01-14T01:01:35.521Z,79.20
2019-01-14T01:04:05.845Z,76.80
2019-01-14T01:06:36.299Z,76.70
2019-01-14T01:09:07.831Z,75.60
2019-01-14T01:11:38.185Z,74.70
2019-01-14T01:14:08.523Z,74.60
2019-01-14T01:16:39.400Z,73.70
2019-01-14T01:19:09.741Z,74.00
2019-01-14T01:21:40.218Z,72.20
2019-01-14T01:24:10.516Z,72.60
2019-01-14T01:26:41.160Z,73.40
2019-01-14T01:29:11.520Z,74.10
2019-01-14T01:31:41.865Z,74.70
2019-01-14T01:34:12.471Z,75.30
2019-01-14T01:36:43.200Z,76.90
2019-01-14T01:39:13.913Z,78.90
2019-01-14T01:41:44.557Z,79.20
2019-01-14T01:44:15.447Z,78.80
2019-01-14T01:46:45.770Z,79.00
2019-01-14T01:49:16.109Z,78.20
2019-01-14T01:51:46.762Z,78.80
2019-01-14T01:54:17.100Z,80.00
2019-01-14T01:56:47.514Z,79.10
2019-01-14T01:59:18.164Z,79.10
2019-01-14T02:01:48.478Z,79.80
2019-01-14T02:04:19.104Z,81.00
2019-01-14T02:06:49.779Z,83.00
2019-01-14T02:09:20.377Z,83.40
2019-01-14T02:11:50.698Z,83.80
2019-01-14T02:14:21.684Z,81.80
2019-01-14T02:16:52.539Z,81.40
2019-01-14T02:19:22.880Z,82.00
2019-01-14T02:21:53.369Z,79.90
2019-01-14T02:24:23.710Z,78.50
2019-01-14T02:26:54.612Z,77.80
2019-01-14T02:29:25.554Z,78.80
2019-01-14T02:31:55.877Z,77.20
2019-01-14T02:34:26.497Z,76.50
2019-01-14T02:36:56.864Z,76.60
2019-01-14T02:39:27.204Z,76.50
2019-01-14T02:41:57.522Z,76.50
2019-01-14T02:44:28.150Z,76.60
2019-01-14T02:46:58.488Z,74.00
2019-01-14T02:49:29.098Z,75.20
2019-01-14T02:51:59.460Z,74.20
2019-01-14T02:54:29.837Z,73.30
2019-01-14T02:57:00.449Z,74.60
2019-01-14T02:59:30.822Z,73.40
2019-01-14T03:02:01.169Z,71.90
2019-01-14T03:04:31.743Z,70.30
2019-01-14T03:07:02.119Z,70.50
2019-01-14T03:09:32.434Z,70.80
2019-01-14T03:12:02.779Z,68.90
2019-01-14T03:14:33.137Z,69.10
2019-01-14T03:17:03.719Z,69.10
2019-01-14T03:19:34.345Z,68.30
2019-01-14T03:22:04.809Z,66.90
2019-01-14T03:24:35.418Z,68.30
2019-01-14T03:27:05.769Z,69.00
2019-01-14T03:29:36.405Z,68.60
2019-01-14T03:32:06.748Z,66.90
2019-01-14T03:34:37.095Z,66.90
2019-01-14T03:37:07.712Z,66.90
2019-01-14T03:39:38.317Z,66.90
2019-01-14T03:42:08.620Z,68.50
2019-01-14T03:44:39.243Z,68.20
2019-01-14T03:47:09.873Z,68.00
2019-01-14T03:49:40.218Z,68.50
2019-01-14T03:52:11.128Z,66.70
2019-01-14T03:54:41.751Z,64.30
2019-01-14T03:57:12.359Z,66.30
2019-01-14T03:59:43.027Z,66.80
2019-01-14T04:02:13.676Z,67.50
2019-01-14T04:04:44.009Z,67.90
2019-01-14T04:07:14.372Z,66.70
2019-01-14T04:09:44.715Z,66.60
2019-01-14T04:12:15.038Z,65.70
2019-01-14T04:14:45.659Z,66.60
2019-01-14T04:17:16.247Z,68.00
2019-01-14T04:19:47.117Z,66.90
2019-01-14T04:22:17.907Z,66.30
2019-01-14T04:24:48.253Z,65.70
2019-01-14T04:27:18.826Z,63.80
2019-01-14T04:29:49.490Z,65.40
2019-01-14T04:32:20.098Z,65.20
2019-01-14T04:34:50.516Z,65.70
2019-01-14T04:37:21.732Z,61.60
2019-01-14T04:39:52.178Z,60.00
2019-01-14T04:42:22.491Z,60.20
2019-01-14T04:44:54.246Z,58.80
2019-01-14T04:47:24.568Z,58.30
2019-01-14T04:49:55.409Z,57.90
2019-01-14T04:52:26.052Z,56.70
2019-01-14T04:54:56.403Z,56.10
2019-01-14T04:57:27.069Z,55.40
2019-01-14T04:59:57.711Z,53.10
2019-01-14T05:02:28.195Z,53.00
2019-01-14T05:04:58.857Z,54.30
2019-01-14T05:07:29.934Z,54.20
2019-01-14T05:10:00.289Z,52.00
2019-01-14T05:12:30.922Z,52.70
2019-01-14T05:15:01.253Z,53.20
2019-01-14T05:17:31.569Z,52.30
2019-01-14T05:20:02.165Z,52.80
2019-01-14T05:22:32.544Z,52.90
2019-01-14T05:25:02.856Z,53.40
2019-01-14T05:27:33.196Z,51.70
2019-01-14T05:30:07.115Z,51.60
2019-01-14T05:32:37.470Z,51.70
2019-01-14T05:35:09.479Z,52.30
2019-01-14T05:37:39.865Z,51.80
2019-01-14T05:40:17.805Z,51.80
2019-01-14T05:42:48.426Z,51.80
2019-01-14T05:45:19.133Z,52.20
2019-01-14T05:47:49.489Z,52.30
2019-01-14T05:50:19.821Z,51.90
2019-01-14T05:52:50.134Z,51.90
2019-01-14T05:55:20.639Z,51.90
2019-01-14T05:57:51.570Z,51.50
2019-01-14T06:00:32.865Z,51.50
2019-01-14T06:03:03.755Z,49.60
2019-01-14T06:05:34.369Z,50.00
2019-01-14T06:08:04.704Z,50.10
2019-01-14T06:10:35.095Z,51.00
2019-01-14T06:13:05.978Z,51.90
2019-01-14T06:15:36.304Z,50.80
2019-01-14T06:18:06.946Z,51.90
2019-01-14T06:20:37.261Z,51.60
2019-01-14T06:23:07.896Z,52.10
2019-01-14T06:25:38.363Z,51.40
2019-01-14T06:28:08.679Z,51.60
2019-01-14T06:30:38.991Z,53.00
2019-01-14T06:33:09.579Z,51.90
2019-01-14T06:35:39.915Z,53.50
2019-01-14T06:38:10.248Z,55.00
2019-01-14T06:40:40.936Z,55.10
2019-01-14T06:43:11.264Z,55.70
2019-01-14T06:45:41.584Z,56.30
2019-01-14T06:48:11.953Z,57.30
2019-01-14T06:50:42.298Z,57.50
2019-01-14T06:53:12.910Z,58.70
2019-01-14T06:55:43.288Z,58.90
2019-01-14T06:58:13.900Z,59.40
2019-01-14T07:00:44.555Z,59.40
2019-01-14T07:03:15.457Z,62.30
2019-01-14T07:05:45.771Z,66.30
2019-01-14T07:08:16.084Z,78.20
2019-01-14T07:10:46.801Z,89.60
2019-01-14T07:13:17.117Z,92.10
2019-01-14T07:15:47.760Z,93.00
2019-01-14T07:18:18.672Z,94.00
2019-01-14T07:20:49.015Z,93.10
2019-01-14T07:23:19.354Z,91.20
2019-01-14T07:25:50.025Z,89.50
2019-01-14T07:28:20.319Z,87.70
2019-01-14T07:30:50.913Z,84.00
2019-01-14T07:33:21.495Z,84.20
2019-01-14T07:35:52.177Z,83.00
2019-01-14T07:38:23.044Z,84.10
2019-01-14T07:40:53.666Z,83.10
2019-01-14T07:43:24.267Z,80.30
2019-01-14T07:45:54.604Z,77.90
2019-01-14T07:48:25.234Z,74.50
2019-01-14T07:50:55.550Z,70.20
2019-01-14T07:53:26.233Z,63.40
2019-01-14T07:55:56.710Z,60.70
2019-01-14T07:58:27.318Z,55.60
2019-01-14T08:00:57.669Z,55.60
2019-01-14T08:03:28.609Z,51.10
2019-01-14T08:05:59.447Z,47.50
2019-01-14T08:08:29.784Z,48.60
2019-01-14T08:11:00.599Z,47.60
2019-01-14T08:13:30.873Z,49.10
2019-01-14T08:16:01.729Z,49.00
2019-01-14T08:18:32.186Z,51.10
2019-01-14T08:21:03.119Z,52.70
2019-01-14T08:23:33.738Z,52.70
2019-01-14T08:26:04.108Z,55.40
2019-01-14T08:28:34.419Z,54.50
2019-01-14T08:31:04.763Z,54.10
2019-01-14T08:33:35.119Z,54.60
2019-01-14T08:36:05.433Z,55.90
2019-01-14T08:38:35.778Z,55.70
2019-01-14T08:41:06.506Z,54.20
2019-01-14T08:43:38.433Z,54.60
2019-01-14T08:46:09.274Z,54.50
2019-01-14T08:48:40.112Z,53.40
2019-01-14T08:51:10.449Z,55.70
2019-01-14T08:53:40.803Z,54.20
2019-01-14T08:56:11.651Z,55.40
2019-01-14T08:58:42.233Z,51.10
2019-01-14T09:01:12.979Z,51.50
2019-01-14T09:03:43.316Z,51.10
2019-01-14T09:06:13.799Z,51.20
2019-01-14T09:08:44.478Z,50.30
2019-01-14T09:11:14.811Z,49.80
2019-01-14T09:13:45.446Z,51.20
2019-01-14T09:16:16.192Z,48.40
2019-01-14T09:18:46.531Z,48.80
2019-01-14T09:21:17.144Z,49.50
2019-01-14T09:23:47.521Z,48.20
2019-01-14T09:26:17.861Z,48.10
2019-01-14T09:28:48.170Z,46.00
2019-01-14T09:31:20.173Z,46.60
2019-01-14T09:33:50.807Z,46.90
2019-01-14T09:36:22.079Z,46.40
2019-01-14T09:38:52.439Z,44.50
2019-01-14T09:41:22.790Z,45.80
2019-01-14T09:43:53.097Z,43.80
2019-01-14T09:46:23.667Z,44.50
2019-01-14T09:48:54.297Z,44.00
2019-01-14T09:51:24.608Z,43.60
2019-01-14T09:53:54.972Z,44.70
2019-01-14T09:56:25.289Z,42.40
2019-01-14T09:58:55.866Z,42.50
2019-01-14T10:01:26.528Z,43.60
2019-01-14T10:03:57.115Z,42.30
2019-01-14T10:06:27.688Z,40.60
2019-01-14T10:08:58.033Z,40.80
2019-01-14T10:11:28.345Z,41.10
2019-01-14T10:13:58.918Z,40.40
2019-01-14T10:16:29.298Z,40.20
2019-01-14T10:19:00.104Z,38.30
2019-01-14T10:21:30.419Z,38.30
2019-01-14T10:24:00.811Z,38.90
2019-01-14T10:26:31.148Z,39.10
2019-01-14T10:29:01.857Z,40.40
2019-01-14T10:31:32.523Z,39.50
2019-01-14T10:34:03.237Z,39.50
2019-01-14T10:36:33.573Z,41.00
2019-01-14T10:39:05.998Z,39.50
2019-01-14T10:41:36.604Z,39.10
2019-01-14T10:44:06.913Z,39.70
2019-01-14T10:46:37.572Z,38.40
2019-01-14T10:49:07.920Z,39.00
2019-01-14T10:51:38.264Z,40.20
2019-01-14T10:54:08.608Z,40.20
2019-01-14T10:56:40.074Z,40.20
2019-01-14T10:59:11.252Z,41.20
2019-01-14T11:01:41.640Z,40.70
2019-01-14T11:04:13.328Z,41.00
2019-01-14T11:06:43.695Z,41.80
2019-01-14T11:09:15.020Z,42.00
2019-01-14T11:11:45.370Z,41.10
2019-01-14T11:14:15.973Z,40.20
2019-01-14T11:16:46.615Z,38.50
2019-01-14T11:19:17.330Z,36.90
2019-01-14T11:21:47.897Z,37.10
2019-01-14T11:24:18.523Z,38.40
2019-01-14T11:26:49.141Z,38.40
2019-01-14T11:29:19.469Z,39.20
2019-01-14T11:31:50.089Z,38.20
2019-01-14T11:34:20.507Z,38.00
2019-01-14T11:36:50.821Z,37.60
2019-01-14T11:39:21.739Z,36.50
2019-01-14T11:41:52.116Z,35.70
2019-01-14T11:44:22.384Z,35.00
2019-01-14T11:46:52.794Z,35.30
2019-01-14T11:49:23.144Z,35.70
2019-01-14T11:51:53.743Z,36.30
2019-01-14T11:54:24.430Z,34.10
2019-01-14T11:56:54.882Z,34.70
2019-01-14T11:59:25.188Z,35.40
2019-01-14T12:01:55.554Z,35.50
2019-01-14T12:04:25.892Z,35.20
2019-01-14T12:06:56.493Z,35.70
2019-01-14T12:09:27.105Z,35.60
2019-01-14T12:11:59.070Z,33.20
2019-01-14T12:14:29.412Z,32.70
2019-01-14T12:16:59.777Z,34.00
2019-01-14T12:19:30.381Z,34.30
2019-01-14T12:22:00.719Z,33.20
2019-01-14T12:24:31.749Z,34.40
2019-01-14T12:27:02.090Z,34.30
2019-01-14T12:29:32.725Z,34.90
2019-01-14T12:32:03.708Z,34.90
2019-01-14T12:34:34.044Z,33.10
2019-01-14T12:37:04.389Z,33.70
2019-01-14T12:39:35.018Z,34.30
2019-01-14T12:42:05.351Z,34.50
2019-01-14T12:44:35.936Z,33.70
2019-01-14T12:47:06.435Z,33.80
2019-01-14T12:49:37.010Z,34.70
2019-01-14T12:52:07.588Z,34.30
2019-01-14T12:54:38.220Z,35.60
2019-01-14T12:57:08.560Z,35.30
2019-01-14T12:59:39.169Z,35.60
2019-01-14T13:02:09.834Z,34.90
2019-01-14T13:04:40.452Z,34.70
2019-01-14T13:07:11.091Z,35.20
2019-01-14T13:09:42.098Z,35.60
2019-01-14T13:12:12.589Z,36.00
2019-01-14T13:14:43.257Z,36.70
2019-01-14T13:17:13.839Z,36.70
2019-01-14T13:19:45.110Z,36.70
2019-01-14T13:22:15.445Z,39.70
2019-01-14T13:24:46.114Z,46.50
2019-01-14T13:27:16.717Z,54.00
2019-01-14T13:29:47.346Z,58.70
2019-01-14T13:32:17.662Z,63.70
2019-01-14T13:34:48.283Z,60.40
2019-01-14T13:37:19.096Z,65.30
2019-01-14T13:39:52.567Z,72.10
2019-01-14T13:42:21.804Z,75.40
2019-01-14T13:44:52.138Z,75.40
2019-01-14T13:47:22.737Z,72.20
2019-01-14T13:49:53.056Z,82.00
2019-01-14T13:52:23.562Z,81.20
2019-01-14T13:54:53.980Z,77.00
2019-01-14T13:57:28.428Z,80.10
2019-01-14T13:59:59.009Z,85.70
2019-01-14T14:02:29.363Z,86.80
2019-01-14T14:05:00.241Z,90.00
2019-01-14T14:07:30.590Z,90.50
2019-01-14T14:10:01.220Z,90.70
2019-01-14T14:12:31.580Z,88.60
2019-01-14T14:15:02.176Z,87.50
2019-01-14T14:17:32.774Z,87.40
2019-01-14T14:20:03.783Z,86.50
2019-01-14T14:22:34.118Z,79.70
2019-01-14T14:25:07.583Z,74.70
2019-01-14T14:27:38.222Z,70.00
2019-01-14T14:30:30.404Z,61.80
2019-01-14T14:33:01.015Z,56.60
2019-01-14T14:35:32.057Z,52.20
2019-01-14T14:38:02.645Z,51.80
2019-01-14T14:40:33.254Z,50.70
2019-01-14T14:43:03.595Z,50.70
2019-01-14T14:45:33.975Z,49.90
2019-01-14T14:48:04.500Z,52.20
2019-01-14T14:50:34.810Z,52.90
2019-01-14T14:53:05.213Z,54.10
2019-01-14T14:55:35.572Z,53.10
2019-01-14T14:58:06.437Z,54.80
2019-01-14T15:00:36.803Z,52.60
2019-01-14T15:03:07.725Z,54.70
2019-01-14T15:05:38.488Z,56.00
2019-01-14T15:08:09.046Z,54.70
2019-01-14T15:10:39.645Z,57.90
2019-01-14T15:13:10.303Z,57.50
2019-01-14T15:15:40.648Z,55.50
2019-01-14T15:18:11.063Z,57.50
2019-01-14T15:20:41.722Z,54.60
2019-01-14T15:23:12.081Z,51.60
2019-01-14T15:25:42.443Z,50.30
2019-01-14T15:28:12.913Z,48.50
2019-01-14T15:30:43.663Z,47.10
2019-01-14T15:33:14.034Z,45.80
2019-01-14T15:35:44.427Z,48.10
2019-01-14T15:38:14.783Z,48.90
2019-01-14T15:40:45.371Z,48.20
2019-01-14T15:43:16.256Z,47.00
2019-01-14T15:45:46.608Z,46.50
2019-01-14T15:48:16.972Z,46.50
2019-01-14T15:50:47.299Z,45.70
2019-01-14T15:53:17.639Z,45.20
2019-01-14T15:55:48.304Z,44.80
2019-01-14T15:58:18.715Z,44.40
2019-01-14T16:00:49.108Z,44.40
2019-01-14T16:03:20.073Z,44.60
2019-01-14T16:05:50.842Z,44.00
2019-01-14T16:08:21.155Z,44.20
2019-01-14T16:10:51.505Z,43.90
2019-01-14T16:13:22.083Z,44.50
2019-01-14T16:15:52.586Z,44.80
2019-01-14T16:18:22.918Z,45.50
2019-01-14T16:20:54.009Z,45.70
2019-01-14T16:23:24.608Z,47.10
2019-01-14T16:25:55.304Z,48.20
2019-01-14T16:28:26.031Z,49.20
2019-01-14T16:30:56.678Z,49.00
2019-01-14T16:33:27.166Z,49.30
2019-01-14T16:35:57.764Z,50.00
2019-01-14T16:38:28.136Z,49.60
2019-01-14T16:40:58.479Z,48.80
2019-01-14T16:43:28.860Z,48.90
2019-01-14T16:45:59.209Z,49.00
2019-01-14T16:48:29.855Z,48.70
2019-01-14T16:51:00.443Z,49.00
2019-01-14T16:53:30.806Z,49.40
2019-01-14T16:56:02.413Z,49.70
2019-01-14T16:58:32.871Z,48.80
2019-01-14T17:01:03.462Z,49.40
2019-01-14T17:03:33.828Z,49.00
2019-01-14T17:06:04.436Z,48.90
2019-01-14T17:08:35.050Z,48.80
2019-01-14T17:11:05.470Z,49.50
2019-01-14T17:13:36.070Z,48.90
2019-01-14T17:16:06.480Z,47.90
2019-01-14T17:18:36.817Z,48.80
2019-01-14T17:21:07.418Z,49.10
2019-01-14T17:23:38.016Z,48.40
2019-01-14T17:26:08.397Z,48.30
2019-01-14T17:28:39.071Z,49.70
2019-01-14T17:31:09.788Z,49.10
2019-01-14T17:33:40.434Z,49.70
2019-01-14T17:36:10.777Z,49.40
2019-01-14T17:38:41.154Z,49.90
2019-01-14T17:41:11.762Z,50.00
2019-01-14T17:43:42.362Z,50.50
2019-01-14T17:46:12.743Z,50.30
2019-01-14T17:48:43.094Z,50.90
2019-01-14T17:51:13.433Z,51.60
2019-01-14T17:53:43.811Z,52.30
2019-01-14T17:56:14.145Z,52.50
2019-01-14T17:58:44.758Z,52.20
2019-01-14T18:01:15.435Z,52.50
2019-01-14T18:03:45.785Z,52.80
2019-01-14T18:06:16.540Z,53.50
2019-01-14T18:08:46.874Z,53.30
2019-01-14T18:11:17.272Z,53.10
2019-01-14T18:13:47.624Z,53.80
2019-01-14T18:16:17.996Z,53.70
2019-01-14T18:18:48.636Z,53.20
2019-01-14T18:21:19.341Z,54.20
2019-01-14T18:23:49.751Z,53.70
2019-01-14T18:26:20.147Z,54.20
2019-01-14T18:28:50.797Z,54.30
2019-01-14T18:31:21.564Z,54.20
2019-01-14T18:33:52.176Z,54.20
2019-01-14T18:36:22.564Z,53.70
2019-01-14T18:38:53.095Z,54.30
2019-01-14T18:41:23.469Z,54.20
2019-01-14T18:43:54.109Z,54.30
2019-01-14T18:46:24.998Z,54.70
2019-01-14T18:48:55.699Z,54.30
2019-01-14T18:51:26.331Z,54.30
2019-01-14T18:53:57.327Z,54.70
2019-01-14T18:56:27.706Z,54.80
2019-01-14T18:58:58.258Z,55.80
2019-01-14T19:01:28.631Z,56.50
2019-01-14T19:03:59.059Z,56.00
2019-01-14T19:06:29.666Z,56.50
2019-01-14T19:09:00.000Z,56.90
2019-01-14T19:11:30.641Z,57.00
2019-01-14T19:14:01.057Z,57.80
2019-01-14T19:16:31.454Z,58.20
2019-01-14T19:19:02.036Z,58.70
2019-01-14T19:21:33.477Z,58.70
2019-01-14T19:24:03.862Z,59.00
2019-01-14T19:26:34.511Z,60.20
2019-01-14T19:29:05.236Z,60.40
2019-01-14T19:31:36.015Z,61.10
2019-01-14T19:34:06.396Z,61.60
2019-01-14T19:36:36.770Z,62.10
2019-01-14T19:39:08.839Z,60.90
2019-01-14T19:41:39.541Z,62.00
2019-01-14T19:44:09.885Z,61.90
2019-01-14T19:46:40.554Z,61.40
2019-01-14T19:49:11.135Z,62.20
2019-01-14T19:51:43.088Z,62.10
2019-01-14T19:54:13.775Z,62.20
2019-01-14T19:56:44.354Z,63.00
2019-01-14T19:59:15.272Z,62.70
2019-01-14T20:01:45.844Z,63.70
2019-01-14T20:04:16.233Z,63.70
2019-01-14T20:06:46.892Z,63.70
2019-01-14T20:09:17.236Z,63.70
2019-01-14T20:11:49.049Z,63.80
2019-01-14T20:14:19.425Z,63.80
2019-01-14T20:16:49.750Z,63.80
2019-01-14T20:19:20.864Z,64.50
2019-01-14T20:21:51.452Z,65.10
2019-01-14T20:24:21.845Z,65.60
2019-01-14T20:26:53.830Z,65.80
2019-01-14T20:29:24.179Z,66.20
2019-01-14T20:31:55.359Z,66.30
2019-01-14T20:34:25.679Z,65.10
2019-01-14T20:36:56.055Z,65.20
2019-01-14T20:39:26.438Z,65.80
2019-01-14T20:41:58.144Z,66.80
2019-01-14T20:44:29.020Z,67.00
2019-01-14T20:46:59.633Z,67.30
2019-01-14T20:49:30.211Z,68.50
2019-01-14T20:52:00.620Z,68.50
2019-01-14T20:54:31.661Z,68.40
2019-01-14T20:57:02.295Z,69.40
2019-01-14T20:59:34.608Z,69.50
2019-01-14T21:02:05.350Z,70.60
2019-01-14T21:04:36.328Z,70.60
2019-01-14T21:07:06.732Z,70.50
2019-01-14T21:09:37.118Z,69.90
2019-01-14T21:12:07.476Z,70.00
2019-01-14T21:14:37.870Z,70.50
2019-01-14T21:17:08.509Z,70.90
2019-01-14T21:19:39.451Z,71.70
2019-01-14T21:22:09.912Z,71.90
2019-01-14T21:24:40.294Z,71.90
2019-01-14T21:27:10.667Z,72.00
2019-01-14T21:29:40.995Z,72.10
2019-01-14T21:32:11.653Z,72.30
2019-01-14T21:34:42.038Z,72.90
2019-01-14T21:37:12.653Z,72.90
2019-01-14T21:39:43.490Z,73.00
2019-01-14T21:42:13.843Z,73.60
2019-01-14T21:44:44.560Z,72.90
2019-01-14T21:47:15.203Z,73.40
2019-01-14T21:49:45.579Z,73.80
2019-01-14T21:52:15.918Z,74.00
2019-01-14T21:54:46.539Z,74.10
2019-01-14T21:57:16.921Z,73.80
2019-01-14T21:59:47.525Z,73.10
2019-01-14T22:02:17.876Z,73.70
2019-01-14T22:04:48.225Z,73.10
2019-01-14T22:07:18.632Z,73.10
2019-01-14T22:09:48.986Z,73.10
2019-01-14T22:12:19.612Z,73.20
2019-01-14T22:14:49.974Z,72.80
2019-01-14T22:17:20.588Z,73.10
2019-01-14T22:19:51.214Z,73.00
2019-01-14T22:22:21.621Z,73.70
2019-01-14T22:24:52.234Z,73.80
2019-01-14T22:27:22.855Z,73.90
2019-01-14T22:29:53.232Z,74.40
2019-01-14T22:32:23.612Z,74.50
2019-01-14T22:34:53.955Z,74.50
2019-01-14T22:37:24.345Z,74.60
2019-01-14T22:39:55.227Z,74.70
2019-01-14T22:42:25.841Z,74.80
2019-01-14T22:44:56.456Z,75.50
2019-01-14T22:47:27.071Z,75.90
2019-01-14T22:49:57.916Z,76.30
2019-01-14T22:52:28.293Z,76.40
2019-01-14T22:54:58.657Z,76.70
2019-01-14T22:57:29.284Z,77.60
2019-01-14T22:59:59.610Z,77.60
2019-01-14T23:02:30.001Z,77.50
2019-01-14T23:05:00.611Z,77.50
2019-01-14T23:07:30.982Z,77.50
2019-01-14T23:10:01.665Z,77.20
2019-01-14T23:12:32.067Z,77.50
2019-01-14T23:15:02.688Z,77.40
2019-01-14T23:17:33.054Z,77.70
2019-01-14T23:20:04.590Z,77.40
2019-01-14T23:22:34.941Z,76.40
2019-01-14T23:25:05.974Z,75.90
2019-01-14T23:27:36.382Z,75.50
2019-01-14T23:30:10.524Z,75.00
2019-01-14T23:32:40.889Z,74.90
2019-01-14T23:35:11.554Z,74.40
2019-01-14T23:37:41.992Z,73.40
2019-01-14T23:40:12.344Z,74.00
2019-01-14T23:42:42.659Z,73.70
2019-01-14T23:45:13.337Z,74.00
2019-01-14T23:47:43.668Z,74.20
2019-01-14T23:50:14.019Z,74.60
2019-01-14T23:52:44.604Z,74.70
2019-01-14T23:55:14.947Z,74.50
2019-01-14T23:57:45.606Z,74.30
